Weather observations for the past three days for
Lake City Municipal Airport
Metric (Imperial)
Date Time (edt) Wind (kph) Vis. (km) Weather Sky Cond. Temperature (ºC) Relative Humidity Wind Chill (°C) Heat Index (°C) Pressure Precipitation (cm)
Air Dwpt 6 hour altimeter (cm) sea level (mb) 1 hr 3 hr 6 hr
Max. Min.
15 07:35 Calm 16.09 Fair CLR 24 23 94% 23 76.45 0.0
15 07:15 Calm 16.09 Fair CLR 23 23 100% 76.45 0.0
15 06:55 Calm 16.09 Fair CLR 23 23 100% 76.45 0.0
15 06:35 Calm 16.09 Fair CLR 23 23 100% 76.43 0.0
15 06:15 Calm 16.09 Fair CLR 23 23 100% 76.43 0.0
15 05:55 Calm 16.09 Fair CLR 23 23 100% 76.4 0.0
15 05:35 Calm 16.09 Fair CLR 24 23 94% 23 76.38 0.0
15 05:15 Calm 16.09 Fair CLR 24 23 94% 23 76.38 0.0
15 04:55 Calm 16.09 Fair CLR 24 23 94% 23 76.38 0.0
15 04:35 Calm 16.09 Fair CLR 24 23 94% 23 76.38 0.0
15 04:15 Calm 16.09 Fair CLR 24 23 94% 23 76.38 0.0
15 03:55 Calm 16.09 Fair CLR 25 23 89% 26 76.38 0.0
15 03:35 Calm 16.09 Fair CLR 25 23 89% 26 76.38 0.0
15 03:15 Calm 16.09 Fair CLR 25 23 89% 26 76.4 0.0
15 02:55 W 6 16.09 Fair CLR 25 23 89% 26 76.4 0.0
15 02:35 Calm 16.09 Fair CLR 25 23 89% 26 76.43 0.0
15 02:15 W 6 16.09 Fair CLR 25 23 89% 26 76.45 0.0
15 01:55 Calm 16.09 Fair CLR 25 23 89% 26 76.48 0.0
15 01:35 S 6 16.09 Fair CLR 25 23 89% 26 76.48 0.0
15 01:15 SW 6 16.09 Fair CLR 25 23 89% 26 76.5 0.0
15 00:55 SW 7 16.09 Fair CLR 25 23 89% 26 76.5 0.0
15 00:35 SW 6 16.09 Fair CLR 25 23 89% 26 76.5 0.0
15 00:15 SW 7 16.09 Fair CLR 26 23 84% 28 76.5 0.0
14 23:55 S 6 16.09 Fair CLR 26 23 84% 28 76.5 0.0
14 23:35 SW 6 16.09 Fair CLR 26 23 84% 28 76.5 0.0
14 23:15 SW 7 16.09 Fair CLR 26 23 84% 28 76.5 0.0
14 22:55 S 7 16.09 Fair CLR 26 23 84% 28 76.5 0.0
14 22:35 S 9 16.09 Fair CLR 26 23 84% 28 76.5 0.0
14 22:15 S 9 16.09 Partly Cloudy SCT110 26 23 84% 28 76.5 0.0
14 21:55 S 9 16.09 Overcast OVC100 26 23 84% 28 76.5 0.0
14 21:35 SE 13 16.09 Overcast OVC100 26 23 84% 28 76.48 0.0
14 21:15 SE 11 16.09 Mostly Cloudy BKN100 26 23 84% 28 76.48 0.0
14 20:55 SE 7 16.09 Thunderstorm in Vicinity CLR 26 23 84% 28 76.48 0.0
14 20:35 S 7 16.09 Thunderstorm in Vicinity SCT080 BKN085 27 23 79% 30 76.45 0.0
14 20:15 S 7 16.09 Thunderstorm SCT055 BKN065 27 23 79% 30 76.48 0.0
14 19:55 SE 7 16.09 Thunderstorm SCT055 SCT120 27 23 79% 30 76.43 0.0
14 19:35 SE 13 16.09 Partly Cloudy SCT048 SCT055 SCT120 27 23 79% 30 76.4 0.0
14 19:15 SE 13 16.09 Overcast BKN046 BKN055 OVC110 27 23 79% 30 76.4 0.0
14 18:55 E 17 G 26 16.09 Light Rain SCT041 BKN050 OVC065 29 22 66% 32 76.4 0.0
14 18:35 S 9 16.09 Overcast SCT048 BKN060 OVC080 30 22 62% 33 76.38 0.0
14 18:15 NE 15 G 28 16.09 Thunderstorm in Vicinity SCT060 32 22 55% 36 76.33 0.0
14 17:55 Calm 16.09 Thunderstorm in Vicinity CLR 35 20 41% 38 76.33 0.0
14 17:35 SW 7 16.09 Thunderstorm in Vicinity CLR 34 21 47% 37 76.33 0.0
14 17:15 S 6 16.09 Fair CLR 35 20 41% 38 76.35 0.0
14 16:55 SW 7 16.09 Fair CLR 33 20 46% 35 76.35 0.0
14 16:35 W 7 16.09 Fair CLR 35 20 41% 38 76.35 0.0
14 16:15 Calm 16.09 Fair CLR 34 20 44% 36 76.38 0.0
14 15:55 S 9 16.09 Fair CLR 34 20 44% 36 76.38 0.0
14 15:35 Calm 16.09 Fair CLR 34 21 47% 37 76.4 0.0
14 15:15 SW 9 16.09 Fair CLR 34 21 47% 37 76.45 0.0
14 14:55 SW 7 16.09 Fair CLR 34 21 47% 37 76.48 0.0
14 14:35 SW 7 16.09 Partly Cloudy SCT065 33 21 49% 36 76.5 0.0
14 14:15 NW 9 16.09 Fair CLR 33 22 52% 37 76.5 0.0
14 13:55 S 7 16.09 Partly Cloudy SCT048 SCT050 SCT065 33 22 52% 37 76.53 0.0
14 13:35 NW 7 16.09 Partly Cloudy SCT048 SCT055 33 21 49% 36 76.56 0.0
14 13:15 Calm 16.09 Partly Cloudy SCT048 32 21 52% 35 76.58 0.0
14 12:55 Calm 16.09 Partly Cloudy SCT043 32 22 55% 36 76.58 0.0
14 12:35 N 6 16.09 Partly Cloudy SCT043 31 22 59% 35 76.58 0.0
14 12:15 Calm 16.09 Fair CLR 32 22 55% 36 76.61 0.0
14 11:55 W 9 16.09 Fair CLR 32 22 55% 36 76.61 0.0
14 11:35 W 9 16.09 Fair CLR 31 22 59% 35 76.61 0.0
14 11:15 N 7 16.09 Fair CLR 31 22 59% 35 76.63 0.0
14 10:55 W 7 16.09 Fair CLR 30 23 66% 34 76.61 0.0
14 10:35 Calm 16.09 Fair CLR 30 23 66% 34 76.61 0.0
14 10:15 Calm 16.09 Fair CLR 29 23 70% 33 76.63 0.0
14 09:55 W 11 16.09 Fair CLR 29 24 74% 34 76.63 0.0
14 09:35 NW 7 16.09 Fair CLR 28 23 74% 31 76.63 0.0
14 09:15 W 6 16.09 Fair CLR 28 24 79% 32 76.61 0.0
14 08:55 Calm 16.09 Fair CLR 27 24 84% 30 76.63 0.0
14 08:35 W 6 16.09 Fair CLR 26 24 89% 28 76.63 0.0
14 08:15 W 7 16.09 Fair CLR 25 24 94% 26 76.63 0.0
14 07:55 W 6 16.09 Fair CLR 25 24 94% 26 76.63 0.0
14 07:35 Calm 16.09 Fair CLR 24 23 94% 23 76.63 0.0
14 07:15 Calm 16.09 Fair CLR 23 23 100% 76.61 0.0
14 06:55 Calm 16.09 Fair CLR 23 23 100% 76.61 0.0
14 06:35 Calm 16.09 Fair CLR 23 23 100% 76.58 0.0
14 06:15 Calm 16.09 Fair CLR 23 23 100% 76.58 0.0
14 05:55 Calm 16.09 Fair CLR 23 22 94% 76.58 0.0
14 05:35 Calm 16.09 Fair CLR 23 23 100% 76.58 0.0
14 05:15 Calm 16.09 Partly Cloudy SCT070 23 22 94% 76.56 0.0
14 04:55 Calm 16.09 Partly Cloudy SCT070 23 23 100% 76.56 0.0
14 04:35 Calm 16.09 Partly Cloudy SCT070 23 23 100% 76.53 0.0
14 04:15 Calm 16.09 Partly Cloudy SCT070 23 22 94% 76.56 0.0
14 03:55 Calm 16.09 Partly Cloudy SCT100 23 22 94% 76.56 0.0
14 03:35 Calm 16.09 Partly Cloudy SCT100 23 23 100% 76.56 0.0
14 03:15 Calm 16.09 Fair CLR 25 23 89% 26 76.56 0.0
14 02:55 Calm 16.09 Fair CLR 24 22 89% 24 76.58 0.0
14 02:35 Calm 16.09 Fair CLR 24 22 89% 24 76.58 0.0
14 02:15 Calm 16.09 Fair CLR 24 22 89% 24 76.61 0.0
14 01:55 Calm 16.09 Fair CLR 25 22 83% 26 76.61 0.0
14 01:35 Calm 16.09 Fair CLR 24 22 89% 24 76.61 0.0
14 01:15 Calm 16.09 Fair CLR 24 22 89% 24 76.63 0.0
14 00:55 Calm 16.09 Fair CLR 25 22 83% 26 76.63 0.0
14 00:35 Calm 16.09 Fair CLR 26 22 79% 28 76.61 0.0
14 00:15 Calm 16.09 Fair CLR 27 22 74% 29 76.61 0.0
13 23:55 Calm 16.09 Fair CLR 27 22 74% 29 76.61 0.0
13 23:35 W 6 16.09 Fair CLR 27 22 74% 29 76.61 0.0
13 23:15 SW 7 16.09 Fair CLR 27 22 74% 29 76.58 0.0
13 22:55 W 9 16.09 Fair CLR 28 22 70% 31 76.58 0.0
13 22:35 W 11 16.09 Fair CLR 28 22 70% 31 76.58 0.0
13 22:15 W 7 16.09 Fair CLR 28 22 70% 31 76.58 0.0
13 21:55 W 9 16.09 Fair CLR 28 22 70% 31 76.58 0.0
13 21:35 SW 9 16.09 Fair CLR 29 22 66% 32 76.58 0.0
13 21:15 SW 9 16.09 Fair CLR 30 22 62% 33 76.58 0.0
13 20:55 S 9 16.09 Fair CLR 30 22 62% 33 76.58 0.0
13 20:35 S 7 16.09 Fair CLR 31 21 55% 34 76.56 0.0
13 20:15 S 7 16.09 Partly Cloudy SCT075 32 20 49% 34 76.56 0.0
13 19:55 W 7 16.09 Fair CLR 33 18 41% 34 76.53 0.0
13 19:35 W 7 16.09 Fair CLR 33 18 41% 34 76.53 0.0
13 19:15 W 7 16.09 Fair CLR 33 18 41% 34 76.5 0.0
13 18:55 SW 6 16.09 Fair CLR 34 17 36% 35 76.5 0.0
13 18:35 W 9 16.09 Fair CLR 34 17 36% 35 76.5 0.0
13 18:15 Calm 16.09 Fair CLR 34 17 36% 35 76.5 0.0
13 17:55 SW 7 16.09 Fair CLR 33 17 38% 33 76.5 0.0
13 17:35 Calm 16.09 Fair CLR 34 17 36% 35 76.5 0.0
13 17:15 W 9 16.09 Fair CLR 34 17 36% 35 76.5 0.0
13 16:55 W 7 16.09 Partly Cloudy SCT090 35 18 36% 36 76.5 0.0
13 16:35 SW 7 16.09 Partly Cloudy SCT090 34 18 39% 35 76.5 0.0
13 16:15 W 7 16.09 Partly Cloudy SCT070 SCT090 34 18 39% 35 76.53 0.0
13 15:55 W 11 16.09 Partly Cloudy SCT070 35 18 36% 36 76.53 0.0
13 15:35 W 7 16.09 Fair CLR 34 18 39% 35 76.56 0.0
13 15:15 SW 6 16.09 Fair CLR 34 18 39% 35 76.58 0.0
13 14:55 W 9 16.09 Partly Cloudy SCT065 33 18 41% 34 76.58 0.0
13 14:35 W 9 16.09 Partly Cloudy SCT065 33 19 44% 35 76.58 0.0
13 14:15 W 11 16.09 Partly Cloudy SCT065 33 19 44% 35 76.61 0.0
13 13:55 S 6 16.09 Fair CLR 33 18 41% 34 76.63 0.0
13 13:35 N 6 16.09 Partly Cloudy SCT070 33 18 41% 34 76.66 0.0
13 13:15 S 7 16.09 Fair CLR 33 18 41% 34 76.68 0.0
13 12:55 Calm 16.09 Fair CLR 33 18 41% 34 76.68 0.0
13 12:15 Calm 16.09 Partly Cloudy SCT070 32 18 43% 33 76.71 0.0
13 11:55 W 9 16.09 Partly Cloudy SCT070 32 18 43% 33 76.71 0.0
13 11:35 W 6 16.09 Fair CLR 32 20 49% 34 76.71 0.0
13 11:15 W 7 16.09 Fair CLR 32 18 43% 33 76.71 0.0
13 10:55 NW 7 16.09 Fair CLR 31 20 52% 33 76.68 0.0
13 10:35 NW 6 16.09 Fair CLR 31 20 52% 33 76.68 0.0
13 10:15 NW 6 16.09 Partly Cloudy SCT075 30 20 55% 32 76.68 0.0
13 09:55 Calm 16.09 Partly Cloudy SCT075 30 22 62% 33 76.66 0.0
13 09:35 N 6 16.09 Fair CLR 30 22 62% 33 76.66 0.0
13 09:15 NW 6 16.09 Fair CLR 28 22 70% 31 76.66 0.0
13 08:55 N 6 16.09 Fair CLR 27 22 74% 29 76.66 0.0
13 08:35 NW 6 16.09 Fair CLR 27 23 79% 30 76.66 0.0
13 08:15 NW 6 16.09 Fair CLR 26 22 79% 28 76.66 0.0
13 07:55 Calm 16.09 Fair CLR 24 23 94% 23 76.63 0.0
13 07:35 Calm 16.09 Fair CLR 23 23 100% 76.61 0.0
13 07:15 W 6 16.09 Fair CLR 22 22 100% 76.61 0.0
13 06:55 Calm 16.09 Fair CLR 22 22 100% 76.58 0.0
13 06:35 Calm 16.09 Fair CLR 22 22 100% 76.56 0.0
13 06:15 Calm 16.09 Fair CLR 23 22 94% 76.53 0.0
13 05:55 Calm 16.09 Fair CLR 23 22 94% 76.5 0.0
13 05:35 Calm 16.09 Fair CLR 23 22 94% 76.5 0.0
13 05:15 Calm 16.09 Fair CLR 24 22 89% 24 76.5 0.0
13 04:55 Calm 16.09 Fair CLR 24 22 89% 24 76.5 0.0
13 04:35 Calm 16.09 Fair CLR 24 22 89% 24 76.48 0.0
13 04:15 Calm 16.09 Fair CLR 24 22 89% 24 76.45 0.0
13 03:55 Calm 16.09 Fair CLR 25 22 83% 26 76.45 0.0
13 03:35 W 9 16.09 Fair CLR 25 22 83% 26 76.45 0.0
13 03:15 W 9 16.09 Fair CLR 25 22 83% 26 76.45 0.0
13 02:55 W 6 16.09 Fair CLR 25 22 83% 26 76.48 0.0
13 02:35 Calm 16.09 Fair CLR 24 22 89% 24 76.48 0.0
13 02:15 Calm 16.09 Fair CLR 24 22 89% 24 76.5 0.0
13 01:55 SW 7 16.09 Fair CLR 25 22 83% 26 76.5 0.0
13 01:35 Calm 16.09 Fair CLR 25 22 83% 26 76.5 0.0
13 01:15 Calm 16.09 Fair CLR 25 22 83% 26 76.5 0.0
13 00:55 SW 6 16.09 Fair CLR 26 22 79% 28 76.5 0.0
13 00:35 W 6 16.09 Fair CLR 26 22 79% 28 76.5 0.0
13 00:15 W 6 16.09 Fair CLR 26 22 79% 28 76.5 0.0
12 23:55 W 7 16.09 Fair CLR 26 21 74% 27 76.5 0.0
12 23:35 W 7 16.09 Fair CLR 26 21 74% 27 76.5 0.0
12 23:15 W 6 16.09 Partly Cloudy SCT090 27 21 70% 29 76.5 0.0
12 22:55 W 6 16.09 Mostly Cloudy BKN090 27 21 70% 29 76.5 0.0
12 22:35 W 11 16.09 Fair CLR 27 21 70% 29 76.48 0.0
12 22:15 Calm 16.09 Fair CLR 26 21 74% 27 76.48 0.0
12 21:55 Calm 16.09 Fair CLR 26 21 74% 27 76.45 0.0
12 21:35 Calm 16.09 Fair CLR 27 21 70% 29 76.45 0.0
12 21:15 Calm 16.09 Fair CLR 27 20 66% 29 76.43 0.0
12 20:55 Calm 16.09 Fair CLR 28 20 62% 30 76.4 0.0
12 20:35 Calm 16.09 Fair CLR 30 19 52% 31 76.4 0.0
12 20:15 NW 7 16.09 Fair CLR 30 20 55% 32 76.38 0.0
12 19:55 NW 9 16.09 Fair CLR 31 18 46% 32 76.38 0.0
12 19:35 NW 11 16.09 Fair CLR 32 18 43% 33 76.35 0.0
12 19:15 NW 13 16.09 Fair CLR 33 18 41% 34 76.35 0.0
12 18:55 W 15 16.09 Fair CLR 33 18 41% 34 76.33 0.0
12 18:35 NW 15 16.09 Mostly Cloudy BKN070 33 18 41% 34 76.33 0.0
12 18:15 NW 9 16.09 Overcast BKN070 OVC080 32 18 43% 33 76.33 0.0
12 17:55 W 17 16.09 Overcast BKN070 BKN080 OVC090 33 18 41% 34 76.3 0.0
12 17:35 W 6 16.09 Partly Cloudy SCT070 SCT080 33 18 41% 34 76.28 0.0
12 17:15 NW 13 16.09 Partly Cloudy SCT070 SCT080 33 18 41% 34 76.3 0.0
12 16:55 NW 11 16.09 Partly Cloudy SCT070 SCT090 33 18 41% 34 76.28 0.0
12 16:35 N 9 16.09 Mostly Cloudy BKN070 32 18 43% 33 76.28 0.0
12 16:15 NW 6 16.09 Partly Cloudy SCT070 32 18 43% 33 76.28 0.0
12 15:55 W 6 16.09 Partly Cloudy SCT060 SCT075 SCT085 33 18 41% 34 76.3 0.0
12 15:35 W 13 16.09 Mostly Cloudy BKN060 BKN075 33 18 41% 34 76.3 0.0
12 15:15 W 15 16.09 Partly Cloudy SCT060 33 19 44% 35 76.33 0.0
12 14:55 W 15 16.09 Partly Cloudy SCT060 33 18 41% 34 76.33 0.0
12 14:35 W 11 16.09 Mostly Cloudy BKN060 BKN085 33 18 41% 34 76.33 0.0
12 14:15 W 17 16.09 Overcast BKN060 OVC085 32 18 43% 33 76.33 0.0
12 13:55 Calm 16.09 Mostly Cloudy BKN060 32 18 43% 33 76.35 0.0
12 13:35 Calm 16.09 Partly Cloudy SCT070 SCT080 33 18 41% 34 76.38 0.0
12 13:15 NW 13 16.09 Mostly Cloudy BKN070 BKN080 32 18 43% 33 76.38 0.0
12 12:55 Calm 16.09 Partly Cloudy SCT065 SCT070 32 18 43% 33 76.38 0.0
12 12:35 S 7 16.09 Mostly Cloudy SCT065 BKN070 32 18 43% 33 76.38 0.0
12 12:15 NE 9 16.09 Fair CLR 32 18 43% 33 76.38 0.0
12 11:55 Calm 16.09 Fair CLR 31 19 49% 32 76.38 0.0
12 11:35 NW 9 16.09 Fair CLR 31 20 52% 33 76.38 0.0
12 11:15 Calm 16.09 Fair CLR 31 20 52% 33 76.38 0.0
12 10:55 Calm 16.09 Fair CLR 30 20 55% 32 76.38 0.0
12 10:35 Calm 16.09 Fair CLR 30 20 55% 32 76.38 0.0
12 10:15 W 9 16.09 Fair CLR 29 20 58% 31 76.38 0.0
12 09:55 NW 9 16.09 Fair CLR 28 20 62% 30 76.35 0.0
12 09:35 Calm 16.09 Partly Cloudy SCT065 27 19 62% 28 76.33 0.0
12 09:15 NW 6 16.09 Mostly Cloudy BKN065 27 20 66% 29 76.33 0.0
12 08:55 NW 6 16.09 Partly Cloudy SCT065 26 21 74% 27 76.33 0.0
12 08:35 NW 7 16.09 Fair CLR 26 21 74% 27 76.3 0.0
12 08:15 NW 7 16.09 Fair CLR 25 21 79% 26 76.28 0.0
12 07:55 Calm 16.09 Fair CLR 23 21 89% 76.25 0.0
Date Time (edt) Wind (kph) Vis. (km) Weather Sky Cond. Air Dwpt Max. Min. Relative Humidity Wind Chill (°C) Heat Index (°C) altimeter (cm) sea level (mb) 1 hr 3 hr 6 hr
6 hour
Temperature (ºC) Pressure Precipitation (cm)